Time;durP1;ratioP1;P1;durP2;ratioP2;P2;SDS_P1;SDS_P2;PMS_P1;PMS_P2;Temp;Humidity;BMP_temperature;BMP_pressure;BME280_temperature;BME280_humidity;BME280_pressure;Samples;Min_cycle;Max_cycle;Signal;HPM_P1;HPM_P2
2021/08/28 00:00:50;;;;;;;2.73;2.53;;;15.60;99.90;;;;;;5010998;28;20491;-51
2021/08/28 00:03:19;;;;;;;5.67;2.50;;;15.60;99.90;;;;;;5013793;28;20944;-51
2021/08/28 00:05:46;;;;;;;3.83;2.40;;;15.60;99.90;;;;;;5013963;28;21007;-51
2021/08/28 00:08:12;;;;;;;2.80;2.40;;;15.60;99.90;;;;;;5014263;28;20445;-52
2021/08/28 00:10:39;;;;;;;2.73;2.53;;;15.60;99.90;;;;;;5014521;28;20957;-52
2021/08/28 00:13:06;;;;;;;3.13;2.43;;;15.60;99.90;;;;;;5014563;28;20459;-52
2021/08/28 00:15:33;;;;;;;2.90;2.60;;;15.60;99.90;;;;;;5014464;28;20447;-52
2021/08/28 00:18:00;;;;;;;4.13;2.80;;;15.60;99.90;;;;;;5013950;28;20868;-52
2021/08/28 00:20:29;;;;;;;2.70;2.50;;;15.60;99.90;;;;;;5014381;28;20444;-52
2021/08/28 00:22:56;;;;;;;3.70;2.73;;;15.60;99.90;;;;;;5014201;28;20476;-52
2021/08/28 00:25:23;;;;;;;2.83;2.63;;;15.60;99.90;;;;;;5014974;28;20432;-51
2021/08/28 00:27:50;;;;;;;4.20;2.97;;;16.00;99.90;;;;;;5013997;28;20439;-51
2021/08/28 00:30:16;;;;;;;8.20;2.87;;;15.60;99.90;;;;;;5014208;28;20568;-51
2021/08/28 00:32:43;;;;;;;3.30;3.00;;;15.60;99.90;;;;;;5014055;28;20437;-51
2021/08/28 00:35:10;;;;;;;2.83;2.57;;;15.60;99.90;;;;;;5014204;28;20436;-51
2021/08/28 00:37:38;;;;;;;3.20;2.63;;;15.60;99.90;;;;;;5014074;28;20434;-51
2021/08/28 00:40:06;;;;;;;3.43;2.90;;;15.60;99.90;;;;;;5014172;28;20450;-51
2021/08/28 00:42:33;;;;;;;3.30;3.00;;;15.60;99.90;;;;;;5014214;28;20432;-51
2021/08/28 00:45:00;;;;;;;3.73;2.90;;;15.60;99.90;;;;;;5012925;28;20500;-51
2021/08/28 00:47:27;;;;;;;3.53;3.23;;;15.60;99.90;;;;;;5013885;28;20436;-51
2021/08/28 00:49:54;;;;;;;3.83;3.40;;;15.60;99.90;;;;;;5012414;28;20657;-51
2021/08/28 00:52:21;;;;;;;4.20;3.40;;;15.50;99.90;;;;;;5013970;28;20489;-51
2021/08/28 00:54:50;;;;;;;3.20;2.90;;;15.50;99.90;;;;;;5012353;28;20803;-52
2021/08/28 00:57:20;;;;;;;4.70;3.57;;;15.60;99.90;;;;;;5013985;28;20436;-51
2021/08/28 00:59:49;;;;;;;4.33;3.93;;;15.60;99.90;;;;;;5012544;28;20427;-50
2021/08/28 01:02:18;;;;;;;4.40;4.10;;;15.60;99.90;;;;;;5012752;28;20447;-50
2021/08/28 01:04:51;;;;;;;8.23;3.70;;;15.90;99.90;;;;;;5012317;28;20565;-52
2021/08/28 01:07:27;;;;;;;6.50;3.87;;;15.60;99.90;;;;;;5012551;28;20514;-52
2021/08/28 01:10:21;;;;;;;4.57;4.17;;;15.60;99.90;;;;;;5002973;28;20453;-52
2021/08/28 01:13:00;;;;;;;5.03;4.57;;;15.60;99.90;;;;;;5011712;28;20475;-51
2021/08/28 01:15:28;;;;;;;5.17;4.27;;;15.60;99.90;;;;;;5013526;28;20432;-50
2021/08/28 01:17:57;;;;;;;4.47;4.07;;;15.60;99.90;;;;;;5011524;28;20975;-51
2021/08/28 01:20:35;;;;;;;4.73;4.33;;;15.50;99.90;;;;;;5013494;28;20441;-52
2021/08/28 01:23:22;;;;;;;4.93;4.53;;;15.50;99.90;;;;;;5013589;28;20460;-50
2021/08/28 01:26:07;;;;;;;5.10;4.50;;;15.50;99.90;;;;;;5012148;28;20452;-50
2021/08/28 01:28:43;;;;;;;5.00;4.47;;;15.40;99.90;;;;;;5011856;28;20964;-50
2021/08/28 01:31:13;;;;;;;6.00;4.60;;;15.40;99.90;;;;;;5012004;28;20566;-50
2021/08/28 01:33:41;;;;;;;4.83;4.30;;;15.40;99.90;;;;;;5011856;28;20472;-51
2021/08/28 01:36:12;;;;;;;4.90;4.50;;;15.40;99.90;;;;;;5011897;28;20448;-51
2021/08/28 01:38:57;;;;;;;7.00;5.03;;;15.40;99.90;;;;;;5011653;28;20505;-51
2021/08/28 01:41:26;;;;;;;5.50;4.90;;;15.40;99.90;;;;;;5011934;28;20448;-51
2021/08/28 01:43:55;;;;;;;5.03;4.63;;;15.30;99.90;;;;;;5011687;28;20471;-51
2021/08/28 01:46:24;;;;;;;5.07;4.57;;;15.30;99.90;;;;;;5011690;28;20570;-51
2021/08/28 01:48:54;;;;;;;5.40;4.70;;;15.30;99.90;;;;;;5011546;28;20456;-51
2021/08/28 01:51:24;;;;;;;5.53;5.03;;;15.30;99.90;;;;;;5011644;28;20534;-51
2021/08/28 01:53:52;;;;;;;6.33;5.77;;;15.30;99.90;;;;;;5011558;28;20841;-51
2021/08/28 01:56:19;;;;;;;5.80;4.97;;;15.40;99.90;;;;;;5012857;28;20445;-51
2021/08/28 01:58:46;;;;;;;6.50;5.90;;;15.40;99.90;;;;;;5012590;28;20437;-51
2021/08/28 02:01:33;;;;;;;6.40;5.80;;;15.40;99.90;;;;;;5011145;28;20963;-51
2021/08/28 02:04:00;;;;;;;6.07;5.57;;;15.40;99.90;;;;;;5011510;28;20539;-51
2021/08/28 02:06:38;;;;;;;6.07;5.50;;;15.40;99.90;;;;;;5011243;28;20458;-51
2021/08/28 02:09:15;;;;;;;8.90;7.30;;;15.40;99.90;;;;;;5011019;28;20804;-51
2021/08/28 02:11:50;;;;;;;8.27;6.73;;;15.40;99.90;;;;;;5011329;28;20484;-51
2021/08/28 02:14:20;;;;;;;9.30;7.93;;;15.20;99.90;;;;;;5011431;28;20997;-51
2021/08/28 02:16:50;;;;;;;8.03;7.30;;;15.70;99.90;;;;;;5011179;28;20488;-51
2021/08/28 02:19:21;;;;;;;12.33;7.93;;;15.60;99.90;;;;;;5010782;28;20448;-51
2021/08/28 02:22:12;;;;;;;7.80;7.10;;;15.30;99.90;;;;;;5012727;28;20427;-51
2021/08/28 02:25:02;;;;;;;10.90;7.50;;;15.30;99.90;;;;;;5010633;28;21039;-51
2021/08/28 02:27:32;;;;;;;7.90;6.77;;;15.30;99.90;;;;;;5010885;28;20444;-51
2021/08/28 02:30:05;;;;;;;8.70;7.90;;;15.30;99.90;;;;;;5011780;28;20897;-52
2021/08/28 02:32:48;;;;;;;19.03;9.37;;;15.40;99.90;;;;;;5011006;28;20804;-51
2021/08/28 02:35:16;;;;;;;13.93;9.40;;;15.30;99.90;;;;;;5010984;28;20495;-51
2021/08/28 02:37:44;;;;;;;9.70;8.47;;;15.30;99.90;;;;;;5010363;28;20514;-51
2021/08/28 02:40:13;;;;;;;10.37;9.37;;;15.30;99.90;;;;;;5010645;28;20547;-51
2021/08/28 02:42:44;;;;;;;9.27;8.37;;;15.30;99.90;;;;;;5010699;28;20902;-51
2021/08/28 02:45:16;;;;;;;10.40;9.50;;;15.30;99.90;;;;;;5010714;28;20452;-52
2021/08/28 02:47:44;;;;;;;9.87;8.90;;;15.30;99.90;;;;;;5010210;28;20444;-51
2021/08/28 02:50:14;;;;;;;10.67;9.67;;;15.60;99.90;;;;;;5010606;28;20426;-51
2021/08/28 02:52:53;;;;;;;9.83;8.93;;;15.30;99.90;;;;;;5010623;28;20489;-51
2021/08/28 02:55:22;;;;;;;11.03;9.30;;;15.30;99.90;;;;;;5010833;28;20499;-51
2021/08/28 02:57:53;;;;;;;10.63;9.67;;;15.00;99.90;;;;;;5011769;28;20436;-51
2021/08/28 03:00:20;;;;;;;10.10;9.20;;;15.20;99.90;;;;;;5010701;28;20475;-51
2021/08/28 03:02:48;;;;;;;10.70;9.37;;;15.20;99.90;;;;;;5010289;28;20437;-51
2021/08/28 03:05:20;;;;;;;10.80;9.67;;;15.20;99.90;;;;;;5010701;28;20466;-51
2021/08/28 03:07:49;;;;;;;9.80;8.80;;;15.60;99.90;;;;;;5010509;28;20872;-51
2021/08/28 03:10:18;;;;;;;10.53;9.60;;;15.20;99.90;;;;;;5011929;28;20411;-51
2021/08/28 03:12:44;;;;;;;10.33;9.43;;;15.20;99.90;;;;;;5011686;28;20480;-51
2021/08/28 03:15:12;;;;;;;10.07;9.13;;;15.10;99.90;;;;;;5011674;28;20444;-51
2021/08/28 03:18:03;;;;;;;9.20;8.40;;;15.10;99.90;;;;;;5010090;28;20534;-51
2021/08/28 03:20:32;;;;;;;11.03;9.70;;;15.10;99.90;;;;;;5010326;28;20471;-51
2021/08/28 03:23:00;;;;;;;11.10;8.83;;;15.50;99.90;;;;;;5010363;28;20569;-51
2021/08/28 03:25:27;;;;;;;9.50;8.63;;;15.50;99.90;;;;;;5011688;28;20436;-51
2021/08/28 03:27:55;;;;;;;10.60;9.60;;;15.50;99.90;;;;;;5011208;28;20444;-51
2021/08/28 03:30:22;;;;;;;11.97;10.73;;;15.10;99.90;;;;;;5011452;28;20505;-51
2021/08/28 03:32:52;;;;;;;10.47;9.43;;;15.10;99.90;;;;;;5011419;28;20866;-51
2021/08/28 03:35:19;;;;;;;10.20;9.17;;;15.50;99.90;;;;;;5010430;28;20480;-51
2021/08/28 03:37:48;;;;;;;12.30;9.33;;;15.10;99.90;;;;;;5012550;28;20801;-51
2021/08/28 03:40:16;;;;;;;10.77;9.70;;;15.20;99.90;;;;;;5014113;28;20459;-51
2021/08/28 03:42:43;;;;;;;10.43;9.47;;;15.20;99.90;;;;;;5013872;28;20452;-51
2021/08/28 03:45:14;;;;;;;9.60;8.60;;;15.50;99.90;;;;;;5014159;28;20463;-51
2021/08/28 03:47:44;;;;;;;9.13;8.33;;;15.10;99.90;;;;;;5013423;28;20451;-51
2021/08/28 03:50:13;;;;;;;10.50;9.60;;;15.20;99.90;;;;;;5014130;28;20506;-51
2021/08/28 03:52:42;;;;;;;11.47;9.00;;;15.10;99.90;;;;;;5013827;28;20516;-51
2021/08/28 03:55:11;;;;;;;10.37;9.47;;;15.20;99.90;;;;;;5013950;28;20463;-51
2021/08/28 03:57:38;;;;;;;13.03;10.80;;;15.50;99.90;;;;;;5013585;28;20559;-51
2021/08/28 04:00:06;;;;;;;11.27;9.67;;;15.10;99.90;;;;;;5013691;28;20482;-51
2021/08/28 04:02:42;;;;;;;10.47;9.37;;;15.00;99.90;;;;;;5014911;28;20437;-51
2021/08/28 04:05:14;;;;;;;9.20;8.40;;;15.10;99.90;;;;;;5013816;28;20530;-51
2021/08/28 04:07:41;;;;;;;9.97;9.00;;;15.40;99.90;;;;;;5013214;28;20484;-52
2021/08/28 04:10:12;;;;;;;8.87;7.97;;;15.00;99.90;;;;;;5013471;28;20538;-51
2021/08/28 04:12:39;;;;;;;10.27;9.37;;;15.00;99.90;;;;;;5013322;28;20487;-51
2021/08/28 04:15:08;;;;;;;9.97;9.07;;;14.70;99.90;;;;;;5013427;28;20961;-51
2021/08/28 04:17:55;;;;;;;10.33;9.23;;;15.00;99.90;;;;;;5014229;28;20893;-52
2021/08/28 04:20:22;;;;;;;11.20;10.10;;;15.00;99.90;;;;;;5013448;28;20455;-51
2021/08/28 04:22:49;;;;;;;11.10;9.60;;;15.00;99.90;;;;;;5013188;28;20456;-51
2021/08/28 04:25:46;;;;;;;9.63;8.80;;;15.40;99.90;;;;;;5014457;28;20429;-51
2021/08/28 04:28:24;;;;;;;10.13;9.13;;;15.00;99.90;;;;;;5012753;28;20556;-51
2021/08/28 04:30:51;;;;;;;9.67;8.67;;;15.10;99.90;;;;;;5013172;28;20513;-51
2021/08/28 04:33:17;;;;;;;11.13;9.73;;;15.40;99.90;;;;;;5012968;28;20495;-51
2021/08/28 04:35:44;;;;;;;9.63;8.63;;;14.60;99.90;;;;;;5013085;28;20469;-51
2021/08/28 04:38:11;;;;;;;11.23;9.80;;;15.00;99.90;;;;;;5012882;28;20479;-51
2021/08/28 04:40:38;;;;;;;11.30;8.63;;;15.10;99.90;;;;;;5014666;28;20441;-51
2021/08/28 04:43:09;;;;;;;10.00;8.67;;;15.30;99.90;;;;;;5012918;28;20463;-51
2021/08/28 04:45:58;;;;;;;11.30;9.17;;;15.00;99.90;;;;;;5012997;28;20777;-51
2021/08/28 04:48:32;;;;;;;10.67;9.20;;;14.80;99.90;;;;;;5012567;28;20800;-51
2021/08/28 04:51:02;;;;;;;14.10;9.47;;;15.10;99.90;;;;;;5013260;28;20452;-51
2021/08/28 04:53:29;;;;;;;11.23;9.53;;;14.90;99.90;;;;;;5012665;28;20578;-51
2021/08/28 04:55:55;;;;;;;10.10;8.40;;;14.90;99.90;;;;;;5012640;28;20533;-51
2021/08/28 04:58:23;;;;;;;10.13;8.53;;;15.30;99.90;;;;;;5013676;28;20435;-51
2021/08/28 05:01:10;;;;;;;9.27;8.30;;;14.90;99.90;;;;;;5009908;28;20418;-51
2021/08/28 05:04:11;;;;;;;8.50;7.70;;;15.00;99.90;;;;;;5012468;28;20461;-51
2021/08/28 05:06:38;;;;;;;15.40;8.30;;;14.40;99.90;;;;;;5012471;28;20459;-51
2021/08/28 05:09:08;;;;;;;10.00;8.50;;;15.10;99.90;;;;;;5012375;28;20864;-51
2021/08/28 05:11:35;;;;;;;8.77;7.80;;;14.90;99.90;;;;;;5012264;28;20446;-51
2021/08/28 05:14:03;;;;;;;12.53;8.40;;;14.80;99.90;;;;;;5011913;28;20483;-51
2021/08/28 05:16:29;;;;;;;9.40;7.40;;;14.80;99.90;;;;;;5013386;28;20525;-51
2021/08/28 05:18:56;;;;;;;8.90;7.50;;;14.80;99.90;;;;;;5011698;28;20431;-51
2021/08/28 05:21:26;;;;;;;8.90;7.70;;;14.90;99.90;;;;;;5012014;28;20966;-51
2021/08/28 05:24:21;;;;;;;9.70;7.53;;;15.00;99.90;;;;;;5012009;28;20495;-51
2021/08/28 05:26:50;;;;;;;8.50;7.70;;;14.90;99.90;;;;;;5011635;28;20463;-51
2021/08/28 05:29:18;;;;;;;8.50;7.47;;;14.90;99.90;;;;;;5011625;28;20453;-51
2021/08/28 05:31:45;;;;;;;9.77;7.23;;;14.90;99.90;;;;;;5011741;28;20465;-51
2021/08/28 05:34:14;;;;;;;8.97;6.97;;;15.30;99.90;;;;;;5011746;28;20530;-51
2021/08/28 05:37:00;;;;;;;10.47;8.17;;;14.80;99.90;;;;;;5013059;28;20438;-51
2021/08/28 05:39:45;;;;;;;10.27;7.80;;;14.90;99.90;;;;;;5013110;28;20538;-51
2021/08/28 05:42:14;;;;;;;9.70;6.50;;;14.80;99.90;;;;;;5011455;28;20507;-51
2021/08/28 05:44:42;;;;;;;9.00;6.90;;;14.90;99.90;;;;;;5012854;28;21052;-51
2021/08/28 05:47:11;;;;;;;9.43;6.47;;;14.40;99.90;;;;;;5011851;28;20505;-51
2021/08/28 05:49:37;;;;;;;9.60;6.90;;;14.80;99.90;;;;;;5012897;28;20492;-51
2021/08/28 05:52:07;;;;;;;8.23;7.40;;;14.90;99.90;;;;;;5011760;28;20490;-51
2021/08/28 05:54:34;;;;;;;11.67;5.93;;;15.10;99.90;;;;;;5011412;28;20469;-51
2021/08/28 05:57:01;;;;;;;10.20;6.53;;;14.60;99.90;;;;;;5011657;28;20507;-51
2021/08/28 05:59:29;;;;;;;7.50;5.83;;;14.90;99.90;;;;;;5010850;28;21032;-51
2021/08/28 06:01:58;;;;;;;6.73;5.77;;;14.60;99.90;;;;;;5011783;28;20529;-51
2021/08/28 06:04:26;;;;;;;7.17;6.10;;;14.90;99.90;;;;;;5011635;28;20473;-51
2021/08/28 06:07:13;;;;;;;8.57;6.20;;;15.20;99.90;;;;;;5012432;28;20440;-51
2021/08/28 06:09:59;;;;;;;6.80;5.90;;;15.00;99.90;;;;;;5012929;28;20432;-51
2021/08/28 06:12:44;;;;;;;8.30;5.60;;;15.00;99.90;;;;;;5012769;28;20558;-51
2021/08/28 06:15:30;;;;;;;6.57;5.87;;;15.10;99.90;;;;;;5013452;28;20487;-51
2021/08/28 06:18:09;;;;;;;5.70;5.10;;;15.10;99.90;;;;;;5011013;28;20452;-51
2021/08/28 06:20:35;;;;;;;6.13;5.53;;;15.20;99.90;;;;;;5011097;28;20875;-52
2021/08/28 06:23:04;;;;;;;6.67;5.67;;;15.20;99.90;;;;;;5010772;28;20566;-51
2021/08/28 06:25:43;;;;;;;7.77;6.97;;;14.90;99.90;;;;;;5034478;23;20531;-52
2021/08/28 06:28:10;;;;;;;8.43;5.80;;;15.20;99.90;;;;;;5011760;28;20438;-52
2021/08/28 06:30:42;;;;;;;7.10;6.27;;;15.20;99.90;;;;;;5011075;28;20460;-52
2021/08/28 06:33:10;;;;;;;6.63;5.43;;;15.20;99.90;;;;;;5010894;28;20474;-52
2021/08/28 06:35:37;;;;;;;5.87;5.30;;;15.20;99.90;;;;;;5010574;28;20574;-53
2021/08/28 06:38:15;;;;;;;7.17;5.70;;;15.20;99.90;;;;;;5010496;28;20549;-53
2021/08/28 06:41:02;;;;;;;6.07;5.47;;;14.90;99.90;;;;;;5012252;28;20427;-52
2021/08/28 06:43:49;;;;;;;5.40;4.77;;;15.30;99.90;;;;;;5011694;28;20474;-53
2021/08/28 06:46:34;;;;;;;5.97;5.37;;;15.00;99.90;;;;;;5012581;28;20432;-52
2021/08/28 06:49:35;;;;;;;5.90;4.87;;;15.30;99.90;;;;;;5011846;28;20614;-52
2021/08/28 06:52:20;;;;;;;7.90;5.00;;;15.30;99.90;;;;;;5012181;28;20461;-53
2021/08/28 06:55:07;;;;;;;5.67;4.60;;;15.70;99.90;;;;;;5012151;28;20583;-53
2021/08/28 06:57:54;;;;;;;5.93;5.33;;;15.40;99.90;;;;;;5011480;28;20815;-52
2021/08/28 07:00:32;;;;;;;6.20;5.57;;;15.40;99.90;;;;;;5010670;28;20460;-52
2021/08/28 07:03:18;;;;;;;7.00;4.63;;;15.50;99.90;;;;;;5012086;28;20422;-52
2021/08/28 07:05:47;;;;;;;5.33;4.73;;;15.40;99.90;;;;;;5010827;28;20447;-52
2021/08/28 07:08:25;;;;;;;5.00;4.43;;;15.60;99.90;;;;;;5010243;28;20893;-52
2021/08/28 07:10:52;;;;;;;7.27;5.83;;;15.60;99.90;;;;;;5010471;28;20510;-52
2021/08/28 07:13:19;;;;;;;7.00;4.90;;;15.60;99.90;;;;;;5013929;28;20530;-53
2021/08/28 07:15:46;;;;;;;7.30;5.60;;;15.60;99.90;;;;;;5014363;28;20449;-53
2021/08/28 07:18:15;;;;;;;5.47;4.70;;;15.70;99.90;;;;;;5015483;28;20436;-52
2021/08/28 07:20:42;;;;;;;5.53;5.03;;;15.70;99.90;;;;;;5015143;28;20467;-53
2021/08/28 07:23:12;;;;;;;5.60;4.83;;;15.80;99.90;;;;;;5014404;28;20842;-53
2021/08/28 07:25:51;;;;;;;6.30;5.27;;;15.80;99.90;;;;;;5014382;28;20487;-52
2021/08/28 07:28:18;;;;;;;7.57;5.17;;;15.80;99.90;;;;;;5015363;28;20882;-52
2021/08/28 07:31:03;;;;;;;4.80;4.40;;;15.90;99.90;;;;;;5015622;28;20434;-52
2021/08/28 07:33:31;;;;;;;6.00;5.17;;;15.90;99.90;;;;;;5014231;28;20476;-52
2021/08/28 07:35:58;;;;;;;5.50;5.00;;;16.00;99.90;;;;;;5014388;28;20445;-52
2021/08/28 07:38:26;;;;;;;5.73;5.20;;;15.90;99.90;;;;;;5013897;28;20456;-53
2021/08/28 07:40:54;;;;;;;6.50;4.93;;;16.00;99.90;;;;;;5014266;28;20479;-52
2021/08/28 07:43:21;;;;;;;5.00;4.50;;;16.10;99.90;;;;;;5013961;28;20445;-52
2021/08/28 07:45:53;;;;;;;5.67;5.07;;;16.10;99.90;;;;;;5013859;28;21032;-52
2021/08/28 07:48:26;;;;;;;6.00;5.30;;;16.40;99.90;;;;;;5013230;28;20461;-52
2021/08/28 07:50:52;;;;;;;6.40;5.03;;;16.10;99.90;;;;;;5013981;28;20465;-53
2021/08/28 07:53:19;;;;;;;5.00;4.50;;;16.10;99.90;;;;;;5013687;28;20480;-53
2021/08/28 07:55:53;;;;;;;6.83;5.20;;;16.00;99.90;;;;;;5013813;28;20924;-52
2021/08/28 07:58:19;;;;;;;5.27;4.77;;;16.10;99.90;;;;;;5014550;28;20929;-53
2021/08/28 08:00:46;;;;;;;5.67;5.17;;;16.10;99.90;;;;;;5013846;28;21045;-53
2021/08/28 08:03:13;;;;;;;5.20;4.70;;;16.20;99.90;;;;;;5013629;28;20551;-53
2021/08/28 08:05:58;;;;;;;5.57;5.07;;;16.20;99.90;;;;;;5015401;28;20398;-53
2021/08/28 08:08:45;;;;;;;6.13;5.50;;;16.20;99.90;;;;;;5017255;28;20905;-52
2021/08/28 08:11:31;;;;;;;6.70;4.57;;;16.20;99.90;;;;;;5015257;28;20514;-52
2021/08/28 08:14:16;;;;;;;5.50;4.30;;;16.30;99.90;;;;;;5014683;28;21099;-53
2021/08/28 08:17:06;;;;;;;7.20;5.13;;;16.30;99.90;;;;;;5014564;28;20827;-52
2021/08/28 08:20:03;;;;;;;5.53;4.83;;;16.40;99.90;;;;;;5013979;28;20452;-52
2021/08/28 08:22:49;;;;;;;4.70;4.30;;;16.30;99.90;;;;;;5014081;28;20535;-53
2021/08/28 08:25:47;;;;;;;6.13;4.67;;;16.30;99.90;;;;;;5013210;28;20579;-52
2021/08/28 08:28:38;;;;;;;5.13;4.37;;;16.30;99.90;;;;;;5013753;28;20460;-52
2021/08/28 08:31:27;;;;;;;4.30;3.90;;;16.30;99.90;;;;;;5013204;28;20522;-52
2021/08/28 08:33:57;;;;;;;6.23;4.80;;;16.40;99.90;;;;;;5012938;28;20574;-53
2021/08/28 08:36:27;;;;;;;4.73;4.23;;;16.40;99.90;;;;;;5012901;28;20564;-53
2021/08/28 08:38:54;;;;;;;6.07;4.87;;;16.40;99.90;;;;;;5012735;28;20460;-52
2021/08/28 08:41:24;;;;;;;5.10;4.17;;;16.50;99.90;;;;;;5012751;28;20929;-53
2021/08/28 08:43:55;;;;;;;4.37;3.97;;;16.60;99.90;;;;;;5012949;28;21024;-53
2021/08/28 08:46:23;;;;;;;5.53;4.33;;;16.70;99.90;;;;;;5013821;28;20432;-53
2021/08/28 08:48:50;;;;;;;5.80;4.37;;;16.70;99.90;;;;;;5012146;28;20551;-53
2021/08/28 08:51:18;;;;;;;7.37;5.43;;;16.80;99.90;;;;;;5012804;28;20453;-53
2021/08/28 08:53:47;;;;;;;6.63;5.73;;;16.80;99.90;;;;;;5012510;28;20490;-53
2021/08/28 08:56:18;;;;;;;5.23;4.27;;;16.80;99.90;;;;;;5012755;28;20452;-53
2021/08/28 08:58:49;;;;;;;6.70;6.10;;;16.90;99.90;;;;;;5012016;28;20465;-53
2021/08/28 09:01:17;;;;;;;5.07;4.57;;;16.90;99.90;;;;;;5014743;28;20431;-52
2021/08/28 09:03:47;;;;;;;4.77;4.27;;;16.90;99.90;;;;;;5014720;28;20460;-52
2021/08/28 09:06:16;;;;;;;4.50;4.10;;;17.00;99.90;;;;;;5012315;28;20494;-52
2021/08/28 09:08:48;;;;;;;4.60;4.20;;;17.00;99.90;;;;;;5011606;28;21010;-54
2021/08/28 09:11:23;;;;;;;4.60;4.20;;;17.00;99.90;;;;;;5011477;28;20437;-53
2021/08/28 09:13:50;;;;;;;4.70;4.30;;;17.00;99.90;;;;;;5013167;28;20869;-53
2021/08/28 09:16:30;;;;;;;6.37;4.40;;;17.10;99.90;;;;;;5013531;28;20430;-53
2021/08/28 09:18:58;;;;;;;11.33;5.50;;;17.10;99.90;;;;;;5013182;28;20447;-53
2021/08/28 09:21:31;;;;;;;4.53;4.13;;;17.10;99.90;;;;;;5013284;28;20781;-53
2021/08/28 09:24:00;;;;;;;4.73;4.30;;;17.20;99.90;;;;;;5013228;28;21226;-53
2021/08/28 09:26:29;;;;;;;4.97;4.27;;;17.30;99.90;;;;;;5016014;28;20784;-53
2021/08/28 09:28:56;;;;;;;4.90;3.97;;;17.30;99.90;;;;;;5013309;28;20445;-52
2021/08/28 09:31:42;;;;;;;5.10;3.90;;;17.50;99.90;;;;;;5013456;28;20787;-53
2021/08/28 09:34:22;;;;;;;4.27;3.87;;;17.60;99.90;;;;;;5012009;28;20568;-52
2021/08/28 09:36:55;;;;;;;4.10;3.70;;;17.80;99.90;;;;;;5012813;28;20490;-52
2021/08/28 09:39:35;;;;;;;4.20;3.80;;;18.00;99.90;;;;;;5012896;28;20798;-53
2021/08/28 09:42:02;;;;;;;3.90;3.60;;;18.10;99.90;;;;;;5012931;28;20431;-53
2021/08/28 09:44:35;;;;;;;4.50;3.87;;;18.30;99.90;;;;;;5012714;28;20461;-52
2021/08/28 09:47:10;;;;;;;4.63;3.20;;;18.40;99.90;;;;;;5012875;28;20893;-52
2021/08/28 09:49:37;;;;;;;4.70;3.80;;;18.50;99.90;;;;;;5013127;28;20451;-53
2021/08/28 09:52:04;;;;;;;3.73;3.40;;;18.50;99.90;;;;;;5013246;28;20441;-52
2021/08/28 09:54:31;;;;;;;4.10;3.70;;;18.70;99.90;;;;;;5012281;28;21006;-53
2021/08/28 09:57:00;;;;;;;5.20;3.60;;;18.70;99.90;;;;;;5012334;28;20443;-53
2021/08/28 09:59:28;;;;;;;4.17;3.47;;;18.90;99.90;;;;;;5012152;28;20461;-53
2021/08/28 10:01:55;;;;;;;3.60;3.20;;;19.10;99.90;;;;;;5012960;28;20453;-53
2021/08/28 10:04:23;;;;;;;4.30;3.60;;;19.20;99.90;;;;;;5012190;28;20451;-54
2021/08/28 10:06:50;;;;;;;4.07;3.40;;;19.40;99.90;;;;;;5010918;28;20959;-54
2021/08/28 10:09:19;;;;;;;4.83;4.33;;;19.40;99.90;;;;;;5010987;28;20444;-53
2021/08/28 10:11:47;;;;;;;6.47;5.83;;;19.40;99.90;;;;;;5011301;28;20478;-54
2021/08/28 10:14:17;;;;;;;4.37;3.97;;;19.30;99.90;;;;;;5011642;28;20495;-53
2021/08/28 10:16:46;;;;;;;4.10;3.63;;;19.10;99.90;;;;;;5011692;28;20984;-53
2021/08/28 10:19:15;;;;;;;7.60;3.47;;;19.00;99.90;;;;;;5011294;28;20752;-53
2021/08/28 10:21:44;;;;;;;5.20;3.80;;;18.90;99.90;;;;;;5012435;28;20437;-52
2021/08/28 10:24:14;;;;;;;4.23;3.83;;;18.80;99.90;;;;;;5012154;28;20494;-53
2021/08/28 10:26:42;;;;;;;3.67;3.00;;;18.70;99.90;;;;;;5011738;28;20443;-53
2021/08/28 10:29:13;;;;;;;3.20;2.80;;;18.70;99.90;;;;;;5011504;28;20435;-53
2021/08/28 10:31:39;;;;;;;3.97;3.13;;;18.70;99.90;;;;;;5012114;28;20902;-53
2021/08/28 10:34:07;;;;;;;2.90;2.60;;;18.70;99.90;;;;;;5012178;28;20484;-53
2021/08/28 10:36:33;;;;;;;4.90;2.90;;;18.90;99.90;;;;;;5011526;28;20959;-53
2021/08/28 10:39:02;;;;;;;3.93;3.63;;;18.90;99.90;;;;;;5012012;28;20435;-52
2021/08/28 10:41:30;;;;;;;3.90;2.90;;;19.10;99.90;;;;;;5012836;28;20443;-53
2021/08/28 10:43:57;;;;;;;5.60;3.20;;;19.20;99.90;;;;;;5012782;28;20969;-53
2021/08/28 10:46:29;;;;;;;3.40;2.80;;;19.30;99.90;;;;;;5012055;28;20440;-53
2021/08/28 10:49:07;;;;;;;3.73;3.00;;;19.40;99.90;;;;;;5010710;28;20465;-53
2021/08/28 10:51:37;;;;;;;4.13;3.10;;;19.50;99.90;;;;;;5010925;28;20870;-53
2021/08/28 10:54:07;;;;;;;5.63;2.70;;;19.60;99.90;;;;;;5011964;28;20537;-53
2021/08/28 10:56:42;;;;;;;4.73;3.73;;;19.60;99.90;;;;;;5012280;28;20428;-52
2021/08/28 10:59:25;;;;;;;4.67;2.50;;;19.60;99.90;;;;;;5011503;28;20439;-53
2021/08/28 11:01:54;;;;;;;2.47;2.27;;;19.60;99.90;;;;;;5011558;28;20443;-53
2021/08/28 11:04:34;;;;;;;2.73;1.97;;;19.50;99.90;;;;;;5011502;28;20460;-52
2021/08/28 11:07:27;;;;;;;2.33;2.10;;;19.40;99.90;;;;;;5011597;28;20442;-53
2021/08/28 11:10:17;;;;;;;2.83;2.07;;;19.40;99.90;;;;;;5009134;28;20494;-54
2021/08/28 11:13:02;;;;;;;2.60;2.37;;;19.40;99.90;;;;;;5006276;28;20552;-54
2021/08/28 11:15:49;;;;;;;2.20;2.00;;;19.60;99.90;;;;;;5011268;28;20501;-54
2021/08/28 11:18:31;;;;;;;2.73;2.10;;;19.60;99.90;;;;;;5011002;28;20447;-53
2021/08/28 11:21:06;;;;;;;4.50;2.17;;;19.70;99.90;;;;;;5010982;28;20444;-53
2021/08/28 11:23:39;;;;;;;2.90;2.30;;;19.80;99.90;;;;;;5011251;28;20443;-53
2021/08/28 11:26:08;;;;;;;2.57;2.10;;;19.90;99.90;;;;;;5011552;28;20432;-53
2021/08/28 11:28:38;;;;;;;2.17;1.97;;;19.80;99.90;;;;;;5009570;28;20448;-53
2021/08/28 11:31:06;;;;;;;2.30;2.10;;;19.80;99.90;;;;;;5011276;28;20457;-52
2021/08/28 11:33:34;;;;;;;2.60;1.90;;;19.70;99.90;;;;;;5010966;28;20978;-54
2021/08/28 11:36:04;;;;;;;2.63;2.40;;;19.60;99.90;;;;;;5010985;28;20535;-53
2021/08/28 11:38:39;;;;;;;1.70;1.60;;;19.60;99.90;;;;;;5010747;28;20508;-53
2021/08/28 11:41:09;;;;;;;2.90;1.80;;;19.60;99.90;;;;;;5010971;28;20435;-54
2021/08/28 11:43:38;;;;;;;2.67;2.00;;;19.60;99.90;;;;;;5010939;28;20472;-53
2021/08/28 11:46:08;;;;;;;2.00;1.60;;;19.60;99.90;;;;;;5011454;28;20444;-52
2021/08/28 11:48:37;;;;;;;2.60;1.63;;;19.60;99.90;;;;;;5010671;28;20531;-52
2021/08/28 11:51:11;;;;;;;2.10;1.90;;;19.60;99.90;;;;;;5010948;28;20445;-53
2021/08/28 11:53:44;;;;;;;2.60;2.17;;;19.70;99.90;;;;;;5010761;28;20431;-53
2021/08/28 11:56:14;;;;;;;2.73;1.93;;;19.90;99.90;;;;;;5011316;28;20500;-53
2021/08/28 11:58:56;;;;;;;3.13;1.77;;;20.00;99.90;;;;;;5013685;28;20775;-53
2021/08/28 12:01:36;;;;;;;2.40;2.03;;;20.20;99.90;;;;;;5014845;28;20448;-53
2021/08/28 12:04:05;;;;;;;2.43;1.60;;;20.30;99.50;;;;;;5014486;28;20449;-53
2021/08/28 12:06:33;;;;;;;4.20;2.23;;;20.40;98.70;;;;;;5014593;28;20855;-53
2021/08/28 12:09:00;;;;;;;2.77;2.00;;;20.40;98.70;;;;;;5013947;28;20913;-54
2021/08/28 12:11:28;;;;;;;2.10;1.90;;;20.50;98.30;;;;;;5014529;28;20448;-54
2021/08/28 12:13:57;;;;;;;4.90;2.10;;;20.60;97.90;;;;;;5013734;28;20460;-53
2021/08/28 12:16:26;;;;;;;3.50;2.97;;;20.60;98.00;;;;;;5013910;28;20436;-53
2021/08/28 12:19:04;;;;;;;2.80;2.00;;;20.70;97.80;;;;;;5013605;28;20456;-53
2021/08/28 12:21:33;;;;;;;2.20;1.87;;;20.80;97.50;;;;;;5014501;28;20967;-53
2021/08/28 12:24:16;;;;;;;2.30;1.83;;;20.80;97.20;;;;;;5015076;28;20477;-52
2021/08/28 12:26:47;;;;;;;2.60;2.10;;;20.90;97.20;;;;;;5013940;28;20460;-52
2021/08/28 12:29:21;;;;;;;2.40;2.20;;;20.90;97.30;;;;;;5013564;28;20943;-53
2021/08/28 12:31:53;;;;;;;3.20;2.43;;;20.90;97.00;;;;;;5013645;28;20444;-52
2021/08/28 12:34:21;;;;;;;3.40;1.93;;;20.90;96.90;;;;;;5013593;28;20857;-52
2021/08/28 12:36:48;;;;;;;2.30;1.73;;;20.90;96.80;;;;;;5013841;28;20438;-52
2021/08/28 12:39:15;;;;;;;1.97;1.77;;;20.80;96.80;;;;;;5013761;28;20460;-52
2021/08/28 12:41:44;;;;;;;2.27;1.93;;;20.90;96.80;;;;;;5013914;28;20433;-51
2021/08/28 12:44:12;;;;;;;4.00;2.20;;;20.90;97.00;;;;;;5014128;28;20799;-52
2021/08/28 12:46:39;;;;;;;4.33;2.47;;;20.90;96.70;;;;;;5013356;28;20436;-53
2021/08/28 12:49:08;;;;;;;2.30;2.10;;;21.00;96.90;;;;;;5013483;28;20447;-52
2021/08/28 12:51:35;;;;;;;2.63;2.00;;;21.00;97.30;;;;;;5011771;28;20481;-51
2021/08/28 12:54:01;;;;;;;3.70;2.93;;;21.10;96.80;;;;;;5012803;28;20945;-52
2021/08/28 12:56:29;;;;;;;2.70;1.80;;;21.10;96.70;;;;;;5013139;28;20430;-52
2021/08/28 12:58:57;;;;;;;3.87;2.07;;;21.10;96.50;;;;;;5012269;28;20838;-53
2021/08/28 13:01:23;;;;;;;2.63;2.00;;;21.10;96.40;;;;;;5012864;28;20891;-53
2021/08/28 13:03:50;;;;;;;4.20;2.50;;;21.20;96.40;;;;;;5012561;28;20540;-52
2021/08/28 13:06:19;;;;;;;2.70;1.80;;;21.30;96.40;;;;;;5012234;28;20427;-52
2021/08/28 13:08:46;;;;;;;3.67;2.00;;;21.30;96.30;;;;;;5011396;28;20818;-52
2021/08/28 13:11:20;;;;;;;3.70;2.67;;;21.40;96.10;;;;;;5013037;28;20465;-52